createdAt,value
2023-05-24T00:00:32.900Z,13.40
2023-05-24T00:03:00.068Z,7.35
2023-05-24T00:05:26.952Z,8.85
2023-05-24T00:07:53.630Z,11.02
2023-05-24T00:10:20.264Z,13.25
2023-05-24T00:12:46.910Z,8.05
2023-05-24T00:15:13.751Z,14.13
2023-05-24T00:17:42.680Z,9.95
2023-05-24T00:20:14.292Z,8.35
2023-05-24T00:22:41.361Z,10.98
2023-05-24T00:25:08.987Z,25.73
2023-05-24T00:27:37.336Z,8.77
2023-05-24T00:30:05.222Z,16.60
2023-05-24T00:32:31.879Z,14.32
2023-05-24T00:34:58.753Z,16.27
2023-05-24T00:37:26.302Z,13.32
2023-05-24T00:39:52.957Z,17.00
2023-05-24T00:42:19.575Z,9.23
2023-05-24T00:44:46.299Z,9.32
2023-05-24T00:47:13.445Z,8.05
2023-05-24T00:49:40.583Z,9.35
2023-05-24T00:52:08.851Z,16.48
2023-05-24T00:54:35.536Z,12.15
2023-05-24T00:57:02.183Z,13.10
2023-05-24T00:59:28.910Z,9.77
2023-05-24T01:01:55.734Z,8.20
2023-05-24T01:04:23.058Z,13.75
2023-05-24T01:07:17.126Z,13.15
2023-05-24T01:10:08.778Z,14.20
2023-05-24T01:13:01.832Z,10.43
2023-05-24T01:15:34.009Z,10.13
2023-05-24T01:18:31.619Z,12.30
2023-05-24T01:21:14.064Z,9.88
2023-05-24T01:23:55.526Z,13.25
2023-05-24T01:26:39.176Z,10.20
2023-05-24T01:29:06.588Z,10.80
2023-05-24T01:31:34.259Z,10.93
2023-05-24T01:34:01.165Z,5.38
2023-05-24T01:36:27.865Z,13.05
2023-05-24T01:38:54.577Z,10.95
2023-05-24T01:41:32.289Z,16.60
2023-05-24T01:44:10.402Z,12.02
2023-05-24T01:46:38.189Z,13.57
2023-05-24T01:49:16.927Z,23.75
2023-05-24T01:51:54.342Z,14.40
2023-05-24T01:54:26.152Z,14.88
2023-05-24T01:56:54.126Z,14.50
2023-05-24T01:59:22.952Z,16.00
2023-05-24T02:01:50.300Z,15.55
2023-05-24T02:04:17.769Z,19.15
2023-05-24T02:06:44.913Z,16.10
2023-05-24T02:09:11.556Z,12.52
2023-05-24T02:11:38.326Z,14.27
2023-05-24T02:14:05.038Z,20.15
2023-05-24T02:16:31.680Z,14.75
2023-05-24T02:18:58.382Z,9.88
2023-05-24T02:21:25.811Z,21.90
2023-05-24T02:23:52.592Z,20.52
2023-05-24T02:26:19.225Z,14.38
2023-05-24T02:28:45.841Z,21.50
2023-05-24T02:31:12.605Z,18.83
2023-05-24T02:33:39.872Z,10.45
2023-05-24T02:36:06.689Z,23.63
2023-05-24T02:38:33.341Z,9.35
2023-05-24T02:40:59.990Z,14.63
2023-05-24T02:43:26.661Z,11.30
2023-05-24T02:45:53.364Z,12.43
2023-05-24T02:48:20.071Z,19.42
2023-05-24T02:50:47.025Z,18.02
2023-05-24T02:53:13.726Z,10.95
2023-05-24T02:55:40.478Z,21.58
2023-05-24T02:58:08.348Z,23.23
2023-05-24T03:00:36.027Z,12.35
2023-05-24T03:03:03.214Z,16.35
2023-05-24T03:05:30.085Z,9.27
2023-05-24T03:07:59.849Z,10.38
2023-05-24T03:10:26.516Z,16.58
2023-05-24T03:12:53.180Z,16.85
2023-05-24T03:15:19.891Z,10.82
2023-05-24T03:17:46.927Z,17.95
2023-05-24T03:20:13.717Z,21.10
2023-05-24T03:22:40.555Z,10.18
2023-05-24T03:25:09.060Z,10.32
2023-05-24T03:27:38.998Z,13.48
2023-05-24T03:30:06.726Z,10.52
2023-05-24T03:32:39.715Z,10.77
2023-05-24T03:35:06.751Z,21.67
2023-05-24T03:37:33.629Z,14.38
2023-05-24T03:40:00.368Z,16.77
2023-05-24T03:42:37.842Z,13.43
2023-05-24T03:45:07.331Z,14.27
2023-05-24T03:47:34.100Z,17.27
2023-05-24T03:50:00.902Z,17.80
2023-05-24T03:52:27.620Z,19.48
2023-05-24T03:54:54.276Z,21.25
2023-05-24T03:57:20.933Z,27.50
2023-05-24T03:59:47.632Z,16.55
2023-05-24T04:02:14.728Z,14.45
2023-05-24T04:04:41.503Z,21.92
2023-05-24T04:07:11.732Z,21.63
2023-05-24T04:09:38.419Z,16.85
2023-05-24T04:12:05.672Z,13.13
2023-05-24T04:14:32.833Z,15.57
2023-05-24T04:16:59.581Z,20.38
2023-05-24T04:19:27.138Z,13.43
2023-05-24T04:21:53.759Z,11.52
2023-05-24T04:24:20.451Z,19.67
2023-05-24T04:26:47.781Z,16.75
2023-05-24T04:29:14.522Z,16.58
2023-05-24T04:31:44.925Z,20.85
2023-05-24T04:34:14.307Z,12.68
2023-05-24T04:36:41.393Z,19.05
2023-05-24T04:39:09.950Z,16.00
2023-05-24T04:41:37.203Z,18.55
2023-05-24T04:44:03.857Z,29.75
2023-05-24T04:46:31.390Z,23.23
2023-05-24T04:48:58.079Z,26.65
2023-05-24T04:51:24.728Z,17.75
2023-05-24T04:53:51.390Z,30.83
2023-05-24T04:56:18.533Z,21.00
2023-05-24T04:58:45.326Z,15.73
2023-05-24T05:01:11.978Z,17.92
2023-05-24T05:03:38.820Z,25.73
2023-05-24T05:06:05.856Z,20.77
2023-05-24T05:08:32.513Z,20.67
2023-05-24T05:10:59.205Z,30.92
2023-05-24T05:13:25.946Z,24.70
2023-05-24T05:15:52.631Z,20.08
2023-05-24T05:18:19.329Z,26.83
2023-05-24T05:20:46.590Z,20.48
2023-05-24T05:23:13.574Z,18.75
2023-05-24T05:25:40.316Z,22.88
2023-05-24T05:28:07.025Z,21.15
2023-05-24T05:30:33.660Z,22.55
2023-05-24T05:33:00.475Z,22.05
2023-05-24T05:35:27.159Z,20.65
2023-05-24T05:37:53.842Z,21.08
2023-05-24T05:40:20.589Z,26.20
2023-05-24T05:42:47.667Z,19.80
2023-05-24T05:45:14.347Z,25.27
2023-05-24T05:47:41.255Z,32.72
2023-05-24T05:50:08.142Z,18.95
2023-05-24T05:52:35.034Z,20.02
2023-05-24T05:55:01.735Z,29.17
2023-05-24T05:57:28.457Z,13.95
2023-05-24T05:59:55.059Z,24.23
2023-05-24T06:02:24.661Z,19.55
2023-05-24T06:04:51.435Z,20.33
2023-05-24T06:07:18.093Z,17.42
2023-05-24T06:09:44.915Z,14.57
2023-05-24T06:12:11.570Z,18.45
2023-05-24T06:14:41.033Z,21.50
2023-05-24T06:17:07.778Z,26.10
2023-05-24T06:19:34.446Z,13.63
2023-05-24T06:22:01.523Z,19.45
2023-05-24T06:24:28.488Z,24.42
2023-05-24T06:26:55.780Z,17.65
2023-05-24T06:29:22.815Z,21.48
2023-05-24T06:31:49.942Z,15.95
2023-05-24T06:34:18.792Z,20.67
2023-05-24T06:36:47.414Z,30.30
2023-05-24T06:39:15.055Z,17.70
2023-05-24T06:41:43.182Z,17.33
2023-05-24T06:44:09.879Z,27.50
2023-05-24T06:46:36.522Z,20.08
2023-05-24T06:49:03.513Z,16.67
2023-05-24T06:51:31.294Z,20.58
2023-05-24T06:53:57.957Z,34.75
2023-05-24T06:56:25.326Z,25.48
2023-05-24T06:58:52.014Z,16.45
2023-05-24T07:01:18.813Z,22.95
2023-05-24T07:03:46.059Z,13.00
2023-05-24T07:06:14.157Z,27.38
2023-05-24T07:08:41.937Z,11.77
2023-05-24T07:11:09.426Z,19.30
2023-05-24T07:13:39.241Z,19.50
2023-05-24T07:16:06.542Z,20.75
2023-05-24T07:18:33.175Z,20.13
2023-05-24T07:21:00.933Z,17.52
2023-05-24T07:23:27.616Z,19.13
2023-05-24T07:25:54.242Z,20.88
2023-05-24T07:28:20.886Z,21.10
2023-05-24T07:30:47.770Z,19.83
2023-05-24T07:33:14.912Z,17.65
2023-05-24T07:35:41.975Z,15.05
2023-05-24T07:38:08.649Z,17.33
2023-05-24T07:40:35.382Z,16.35
2023-05-24T07:43:03.904Z,18.50
2023-05-24T07:45:31.738Z,24.70
2023-05-24T07:47:58.443Z,20.55
2023-05-24T07:50:25.423Z,16.45
2023-05-24T07:52:54.830Z,26.60
2023-05-24T07:55:21.730Z,15.55
2023-05-24T07:57:48.391Z,21.80
2023-05-24T08:00:16.379Z,28.73
2023-05-24T08:02:46.424Z,21.05
2023-05-24T08:05:13.908Z,18.13
2023-05-24T08:07:41.827Z,22.77
2023-05-24T08:10:13.668Z,12.23
2023-05-24T08:12:40.668Z,23.23
2023-05-24T08:15:07.684Z,15.13
2023-05-24T08:17:34.353Z,19.90
2023-05-24T08:20:01.072Z,21.58
2023-05-24T08:22:27.945Z,14.52
2023-05-24T08:24:54.639Z,15.90
2023-05-24T08:27:22.599Z,14.07
2023-05-24T08:29:49.279Z,14.27
2023-05-24T08:32:16.079Z,23.55
2023-05-24T08:34:42.783Z,16.67
2023-05-24T08:37:10.413Z,17.67
2023-05-24T08:39:37.086Z,27.20
2023-05-24T08:42:09.661Z,17.73
2023-05-24T08:44:49.311Z,17.35
2023-05-24T08:47:16.458Z,23.45
2023-05-24T08:49:43.270Z,15.20
2023-05-24T08:52:11.617Z,28.58
2023-05-24T08:54:38.833Z,14.07
2023-05-24T08:57:06.052Z,19.92
2023-05-24T08:59:32.991Z,15.68
2023-05-24T09:02:00.175Z,17.35
2023-05-24T09:04:28.043Z,14.05
2023-05-24T09:06:55.543Z,16.48
2023-05-24T09:09:22.558Z,15.05
2023-05-24T09:11:52.338Z,9.15
2023-05-24T09:14:19.149Z,12.93
2023-05-24T09:16:46.020Z,16.58
2023-05-24T09:19:14.074Z,12.10
2023-05-24T09:21:40.790Z,11.07
2023-05-24T09:24:08.451Z,13.23
2023-05-24T09:26:36.773Z,9.27
2023-05-24T09:29:07.158Z,12.30
2023-05-24T09:31:35.290Z,11.60
2023-05-24T09:34:02.201Z,11.40
2023-05-24T09:36:33.128Z,9.30
2023-05-24T09:39:09.166Z,12.82
2023-05-24T09:41:37.306Z,9.63
2023-05-24T09:44:04.396Z,12.13
2023-05-24T09:46:36.363Z,13.30
2023-05-24T09:49:06.918Z,16.65
2023-05-24T09:51:38.180Z,15.30
2023-05-24T09:54:05.535Z,18.48
2023-05-24T09:56:36.149Z,15.82
2023-05-24T09:59:08.207Z,14.38
2023-05-24T10:01:36.109Z,17.73
2023-05-24T10:04:09.322Z,20.77
2023-05-24T10:06:38.599Z,15.88
2023-05-24T10:09:06.695Z,17.05
2023-05-24T10:11:34.644Z,13.85
2023-05-24T10:14:01.353Z,16.42
2023-05-24T10:16:28.131Z,15.98
2023-05-24T10:18:54.857Z,17.00
2023-05-24T10:21:23.795Z,21.55
2023-05-24T10:23:55.020Z,18.70
2023-05-24T10:26:26.025Z,13.40
2023-05-24T10:28:56.479Z,15.07
2023-05-24T10:31:31.513Z,13.57
2023-05-24T10:34:07.250Z,12.38
2023-05-24T10:36:37.012Z,14.35
2023-05-24T10:39:04.264Z,16.85
2023-05-24T10:41:39.974Z,11.18
2023-05-24T10:44:12.285Z,13.55
2023-05-24T10:47:11.098Z,17.15
2023-05-24T10:49:39.813Z,17.17
2023-05-24T10:52:08.758Z,12.32
2023-05-24T10:54:39.874Z,13.38
2023-05-24T10:57:09.503Z,9.90
2023-05-24T10:59:38.961Z,14.15
2023-05-24T11:02:13.760Z,15.70
2023-05-24T11:04:49.097Z,19.23
2023-05-24T11:07:17.077Z,14.75
2023-05-24T11:09:46.894Z,14.65
2023-05-24T11:12:17.968Z,12.48
2023-05-24T11:14:52.216Z,11.52
2023-05-24T11:17:21.337Z,11.65
2023-05-24T11:19:53.169Z,19.95
2023-05-24T11:22:21.945Z,17.77
2023-05-24T11:24:48.865Z,18.40
2023-05-24T11:27:15.659Z,13.40
2023-05-24T11:29:44.505Z,15.60
2023-05-24T11:32:16.790Z,9.38
2023-05-24T11:34:46.180Z,17.45
2023-05-24T11:37:15.980Z,13.18
2023-05-24T11:39:43.772Z,13.35
2023-05-24T11:42:10.523Z,14.15
2023-05-24T11:44:40.098Z,17.77
2023-05-24T11:47:08.227Z,17.33
2023-05-24T11:49:35.488Z,18.95
2023-05-24T11:52:02.821Z,19.20
2023-05-24T11:54:34.560Z,14.68
2023-05-24T11:57:02.158Z,13.50
2023-05-24T11:59:29.348Z,25.88
2023-05-24T12:02:04.317Z,11.85
2023-05-24T12:04:35.117Z,14.13
2023-05-24T12:07:02.131Z,15.98
2023-05-24T12:09:28.938Z,15.70
2023-05-24T12:11:55.745Z,19.02
2023-05-24T12:14:28.587Z,13.38
2023-05-24T12:16:59.061Z,19.63
2023-05-24T12:19:33.737Z,12.52
2023-05-24T12:22:05.156Z,14.60
2023-05-24T12:24:32.535Z,12.57
2023-05-24T12:27:08.675Z,16.23
2023-05-24T12:29:40.324Z,14.95
2023-05-24T12:32:12.436Z,16.77
2023-05-24T12:34:43.955Z,13.07
2023-05-24T12:37:12.359Z,16.63
2023-05-24T12:39:39.872Z,19.58
2023-05-24T12:42:06.703Z,21.75
2023-05-24T12:44:37.093Z,17.02
2023-05-24T12:47:07.372Z,22.80
2023-05-24T12:49:34.271Z,13.02
2023-05-24T12:52:04.360Z,18.48
2023-05-24T12:54:31.966Z,17.20
2023-05-24T12:57:00.815Z,14.15
2023-05-24T12:59:28.615Z,19.27
2023-05-24T13:01:55.757Z,14.57
2023-05-24T13:04:24.275Z,17.25
2023-05-24T13:06:51.058Z,10.32
2023-05-24T13:09:22.421Z,10.43
2023-05-24T13:11:50.340Z,12.35
2023-05-24T13:14:18.086Z,14.65
2023-05-24T13:16:44.938Z,16.63
2023-05-24T13:19:12.335Z,18.95
2023-05-24T13:21:39.393Z,17.17
2023-05-24T13:24:06.590Z,13.57
2023-05-24T13:26:37.237Z,25.02
2023-05-24T13:31:37.400Z,14.07
2023-05-24T13:34:04.709Z,20.35
2023-05-24T13:36:31.727Z,15.00
2023-05-24T13:39:13.476Z,13.45
2023-05-24T13:41:42.085Z,17.48
2023-05-24T13:44:09.674Z,10.25
2023-05-24T13:46:36.614Z,12.15
2023-05-24T13:49:03.563Z,11.38
2023-05-24T13:51:30.744Z,13.30
2023-05-24T13:53:57.599Z,15.15
2023-05-24T13:56:24.912Z,15.90
2023-05-24T13:58:52.477Z,11.57
2023-05-24T14:01:19.499Z,12.52
2023-05-24T14:03:47.542Z,13.02
2023-05-24T14:06:14.316Z,13.93
2023-05-24T14:08:41.112Z,15.20
2023-05-24T14:11:07.935Z,14.57
2023-05-24T14:16:05.389Z,15.43
2023-05-24T14:18:33.029Z,14.77
2023-05-24T14:20:59.690Z,16.05
2023-05-24T14:23:27.079Z,19.20
2023-05-24T14:25:53.879Z,13.52
2023-05-24T14:28:20.713Z,15.32
2023-05-24T14:30:47.681Z,16.90
2023-05-24T14:33:14.339Z,18.35
2023-05-24T14:35:41.464Z,18.75
2023-05-24T14:38:11.473Z,23.40
2023-05-24T14:40:39.839Z,18.95
2023-05-24T14:43:11.374Z,15.00
2023-05-24T14:45:39.714Z,14.75
2023-05-24T14:48:06.909Z,9.80
2023-05-24T14:50:33.610Z,12.88
2023-05-24T14:53:01.047Z,14.45
2023-05-24T14:55:27.782Z,11.23
2023-05-24T14:57:54.521Z,12.43
2023-05-24T15:00:23.181Z,18.02
2023-05-24T15:02:50.773Z,13.85
2023-05-24T15:05:17.573Z,11.90
2023-05-24T15:07:44.256Z,13.43
2023-05-24T15:10:11.291Z,14.73
2023-05-24T15:12:38.184Z,13.88
2023-05-24T15:15:06.716Z,10.18
2023-05-24T15:17:33.558Z,12.38
2023-05-24T15:20:00.521Z,9.95
2023-05-24T15:22:27.621Z,12.15
2023-05-24T15:24:54.245Z,9.82
2023-05-24T15:27:20.896Z,17.77
2023-05-24T15:29:47.611Z,12.02
2023-05-24T15:32:14.932Z,13.93
2023-05-24T15:34:41.595Z,8.45
2023-05-24T15:37:08.445Z,13.65
2023-05-24T15:39:35.159Z,13.70
2023-05-24T15:42:03.270Z,14.23
2023-05-24T15:44:30.888Z,16.77
2023-05-24T15:46:57.902Z,11.55
2023-05-24T15:49:25.568Z,14.07
2023-05-24T15:54:23.026Z,14.18
2023-05-24T15:56:49.972Z,15.02
2023-05-24T15:59:17.574Z,11.63
2023-05-24T16:01:45.244Z,14.85
2023-05-24T16:04:12.797Z,16.67
2023-05-24T16:06:39.500Z,14.88
2023-05-24T16:09:07.100Z,15.82
2023-05-24T16:11:33.841Z,14.65
2023-05-24T16:14:00.555Z,16.35
2023-05-24T16:16:29.169Z,21.45
2023-05-24T16:18:55.940Z,15.32
2023-05-24T16:21:24.410Z,13.52
2023-05-24T16:23:51.176Z,11.77
2023-05-24T16:26:17.968Z,17.08
2023-05-24T16:28:45.433Z,20.95
2023-05-24T16:31:12.499Z,14.05
2023-05-24T16:33:39.905Z,14.65
2023-05-24T16:36:06.687Z,18.25
2023-05-24T16:38:33.408Z,21.23
2023-05-24T16:41:00.045Z,15.35
2023-05-24T16:43:26.705Z,15.63
2023-05-24T16:45:53.438Z,15.45
2023-05-24T16:48:21.800Z,14.60
2023-05-24T16:50:50.403Z,20.40
2023-05-24T16:53:17.263Z,14.90
2023-05-24T16:55:44.365Z,14.05
2023-05-24T16:58:11.204Z,18.80
2023-05-24T17:00:39.130Z,17.25
2023-05-24T17:03:06.637Z,14.50
2023-05-24T17:05:33.592Z,15.15
2023-05-24T17:08:00.201Z,11.57
2023-05-24T17:10:27.049Z,16.98
2023-05-24T17:12:53.840Z,14.05
2023-05-24T17:15:20.811Z,17.63
2023-05-24T17:17:47.551Z,18.17
2023-05-24T17:20:14.614Z,15.43
2023-05-24T17:22:41.341Z,12.38
2023-05-24T17:25:08.578Z,11.52
2023-05-24T17:27:35.258Z,16.23
2023-05-24T17:30:02.030Z,12.50
2023-05-24T17:32:28.693Z,13.82
2023-05-24T17:34:55.547Z,14.43
2023-05-24T17:37:22.349Z,15.50
2023-05-24T17:39:52.372Z,11.80
2023-05-24T17:42:43.177Z,12.65
2023-05-24T17:45:14.796Z,14.68
2023-05-24T17:47:46.570Z,14.63
2023-05-24T17:50:17.830Z,24.40
2023-05-24T17:53:06.054Z,14.02
2023-05-24T17:55:37.519Z,21.77
2023-05-24T17:58:05.641Z,18.58
2023-05-24T18:00:38.205Z,13.18
2023-05-24T18:03:04.952Z,15.50
2023-05-24T18:05:31.785Z,15.23
2023-05-24T18:07:58.489Z,17.55
2023-05-24T18:10:25.774Z,11.25
2023-05-24T18:12:52.435Z,20.38
2023-05-24T18:15:19.224Z,15.85
2023-05-24T18:17:45.958Z,19.13
2023-05-24T18:20:12.745Z,19.90
2023-05-24T18:22:41.432Z,16.63
2023-05-24T18:25:08.644Z,20.30
2023-05-24T18:27:35.291Z,22.23
2023-05-24T18:30:02.062Z,10.48
2023-05-24T18:32:28.750Z,16.17
2023-05-24T18:34:56.930Z,13.82
2023-05-24T18:37:23.623Z,19.70
2023-05-24T18:39:50.452Z,22.25
2023-05-24T18:42:17.159Z,14.55
2023-05-24T18:44:44.794Z,19.38
2023-05-24T18:47:12.867Z,14.18
2023-05-24T18:49:42.236Z,17.70
2023-05-24T18:52:10.000Z,18.95
2023-05-24T18:54:36.790Z,16.95
2023-05-24T18:57:04.702Z,17.70
2023-05-24T18:59:34.265Z,18.00
2023-05-24T19:02:02.008Z,15.68
2023-05-24T19:04:29.786Z,17.50
2023-05-24T19:06:58.094Z,16.02
2023-05-24T19:09:25.028Z,15.45
2023-05-24T19:11:52.035Z,22.20
2023-05-24T19:14:21.839Z,20.92
2023-05-24T19:16:48.548Z,17.38
2023-05-24T19:19:15.323Z,29.67
2023-05-24T19:21:43.099Z,19.30
2023-05-24T19:24:09.890Z,24.20
2023-05-24T19:26:37.489Z,19.35
2023-05-24T19:29:04.157Z,18.77
2023-05-24T19:31:35.618Z,20.02
2023-05-24T19:34:02.495Z,25.33
2023-05-24T19:36:30.791Z,17.30
2023-05-24T19:38:57.420Z,20.38
2023-05-24T19:41:24.213Z,22.35
2023-05-24T19:43:50.981Z,16.25
2023-05-24T19:46:17.717Z,21.45
2023-05-24T19:48:45.105Z,14.15
2023-05-24T19:51:13.229Z,20.95
2023-05-24T19:53:43.196Z,22.95
2023-05-24T19:56:10.495Z,25.25
2023-05-24T19:58:38.708Z,17.20
2023-05-24T20:01:05.588Z,18.38
2023-05-24T20:03:32.498Z,19.42
2023-05-24T20:05:59.186Z,18.83
2023-05-24T20:08:26.300Z,20.08
2023-05-24T20:10:52.980Z,17.98
2023-05-24T20:13:19.605Z,16.52
2023-05-24T20:15:46.303Z,24.67
2023-05-24T20:18:12.910Z,15.27
2023-05-24T20:20:42.441Z,21.27
2023-05-24T20:23:21.080Z,20.08
2023-05-24T20:25:48.213Z,21.58
2023-05-24T20:28:28.760Z,22.73
2023-05-24T20:30:56.506Z,18.25
2023-05-24T20:33:23.712Z,17.23
2023-05-24T20:35:53.030Z,18.20
2023-05-24T20:38:24.057Z,22.02
2023-05-24T20:40:50.976Z,21.80
2023-05-24T20:43:17.894Z,29.27
2023-05-24T20:45:44.786Z,25.13
2023-05-24T20:48:11.667Z,19.52
2023-05-24T20:50:38.411Z,18.52
2023-05-24T20:53:05.133Z,21.27
2023-05-24T20:55:31.777Z,17.27
2023-05-24T20:57:58.440Z,26.27
2023-05-24T21:00:25.206Z,28.98
2023-05-24T21:02:51.990Z,23.80
2023-05-24T21:05:18.766Z,30.13
2023-05-24T21:07:45.470Z,26.70
2023-05-24T21:10:17.639Z,20.30
2023-05-24T21:12:44.505Z,27.42
2023-05-24T21:15:11.218Z,33.85
2023-05-24T21:17:39.159Z,39.90
2023-05-24T21:20:08.351Z,47.67
2023-05-24T21:22:34.981Z,52.55
2023-05-24T21:25:01.593Z,50.63
2023-05-24T21:27:28.289Z,31.33
2023-05-24T21:29:54.957Z,29.27
2023-05-24T21:32:21.593Z,33.90
2023-05-24T21:34:49.693Z,32.35
2023-05-24T21:37:17.320Z,29.60
2023-05-24T21:39:44.311Z,28.10
2023-05-24T21:42:11.176Z,20.40
2023-05-24T21:44:37.857Z,27.13
2023-05-24T21:47:05.129Z,25.33
2023-05-24T21:49:31.725Z,23.85
2023-05-24T21:51:58.405Z,21.67
2023-05-24T21:54:25.034Z,21.35
2023-05-24T21:56:51.669Z,25.42
2023-05-24T21:59:18.447Z,20.77
2023-05-24T22:01:45.235Z,20.77
2023-05-24T22:04:12.077Z,26.58
2023-05-24T22:06:41.413Z,17.45
2023-05-24T22:09:11.635Z,21.75
2023-05-24T22:11:38.247Z,16.33
2023-05-24T22:14:04.918Z,24.90
2023-05-24T22:16:31.584Z,22.20
2023-05-24T22:18:58.337Z,27.75
2023-05-24T22:21:26.140Z,20.13
2023-05-24T22:23:52.843Z,25.13
2023-05-24T22:26:19.503Z,17.98
2023-05-24T22:29:00.755Z,23.30
2023-05-24T22:31:29.371Z,24.30
2023-05-24T22:34:00.848Z,19.08
2023-05-24T22:36:33.113Z,15.48
2023-05-24T22:39:03.959Z,20.75
2023-05-24T22:41:31.811Z,20.02
2023-05-24T22:43:58.680Z,19.77
2023-05-24T22:46:25.494Z,26.17
2023-05-24T22:48:52.331Z,21.58
2023-05-24T22:51:19.873Z,21.13
2023-05-24T22:53:49.434Z,22.90
2023-05-24T22:56:17.892Z,21.08
2023-05-24T22:58:45.040Z,24.52
2023-05-24T23:01:11.955Z,43.13
2023-05-24T23:03:38.649Z,38.28
2023-05-24T23:06:05.491Z,38.38
2023-05-24T23:08:32.440Z,27.27
2023-05-24T23:11:00.008Z,33.42
2023-05-24T23:13:33.144Z,28.23
2023-05-24T23:16:00.057Z,34.58
2023-05-24T23:18:27.841Z,29.25
2023-05-24T23:20:54.671Z,29.00
2023-05-24T23:23:21.644Z,23.33
2023-05-24T23:25:50.817Z,29.80
2023-05-24T23:28:17.489Z,21.60
2023-05-24T23:30:44.136Z,28.60
2023-05-24T23:33:10.920Z,21.52
2023-05-24T23:35:39.517Z,24.40
2023-05-24T23:38:06.261Z,27.55
2023-05-24T23:40:33.865Z,32.67
2023-05-24T23:43:00.609Z,25.70
2023-05-24T23:45:27.323Z,25.52
2023-05-24T23:47:54.638Z,20.33
2023-05-24T23:50:22.541Z,31.05
2023-05-24T23:52:49.819Z,26.63
2023-05-24T23:55:17.223Z,24.98
2023-05-24T23:57:43.831Z,27.30
